Time;durP1;ratioP1;P1;durP2;ratioP2;P2;SDS_P1;SDS_P2;PMS_P1;PMS_P2;Temp;Humidity;BMP_temperature;BMP_pressure;BME280_temperature;BME280_humidity;BME280_pressure;Samples;Min_cycle;Max_cycle;Signal;HPM_P1;HPM_P2
2022/03/22 00:02:39;;;;;;;7.18;5.97;;;;;;;;;;20918903;28;20051;-76
2022/03/22 00:12:41;;;;;;;6.43;5.57;;;;;;;;;;20917823;28;20053;-76
2022/03/22 00:22:43;;;;;;;7.32;5.97;;;;;;;;;;20917159;28;20404;-76
2022/03/22 00:32:45;;;;;;;6.45;5.85;;;;;;;;;;20916433;28;20148;-76
2022/03/22 00:42:47;;;;;;;7.13;5.82;;;;;;;;;;20914562;28;20405;-76
2022/03/22 00:52:49;;;;;;;8.32;6.35;;;;;;;;;;20915313;28;20052;-76
2022/03/22 01:02:53;;;;;;;6.75;5.78;;;;;;;;;;20896799;28;20059;-77
2022/03/22 01:12:55;;;;;;;6.90;5.45;;;;;;;;;;20895800;28;20049;-76
2022/03/22 01:46:45;;;;;;;6.70;5.30;;;;;;;;;;20189893;29;20053;-84
2022/03/22 01:56:49;;;;;;;7.93;5.55;;;;;;;;;;20174990;29;20133;-85
2022/03/22 02:06:52;;;;;;;6.40;5.60;;;;;;;;;;20159243;29;20049;-85
2022/03/22 02:16:55;;;;;;;6.50;5.53;;;;;;;;;;20174207;29;20053;-86
2022/03/22 02:26:58;;;;;;;6.20;5.47;;;;;;;;;;20157466;29;20041;-85
2022/03/22 02:37:01;;;;;;;6.88;5.90;;;;;;;;;;20157422;29;20057;-85
2022/03/22 02:47:08;;;;;;;7.90;5.38;;;;;;;;;;20157430;29;20041;-86
2022/03/22 02:57:10;;;;;;;8.10;5.82;;;;;;;;;;20155888;29;20056;-86
2022/03/22 03:07:14;;;;;;;6.00;5.38;;;;;;;;;;20139945;29;20044;-85
2022/03/22 03:17:17;;;;;;;6.77;5.80;;;;;;;;;;20153670;29;20093;-86
2022/03/22 03:27:22;;;;;;;6.85;5.53;;;;;;;;;;20150552;29;20045;-86
2022/03/22 03:37:28;;;;;;;5.88;5.15;;;;;;;;;;20167973;29;20485;-87
2022/03/22 03:47:37;;;;;;;6.57;5.55;;;;;;;;;;20153910;29;20152;-86
2022/03/22 03:57:40;;;;;;;6.97;5.35;;;;;;;;;;20138889;29;20612;-86
2022/03/22 04:07:44;;;;;;;6.30;5.43;;;;;;;;;;20167193;29;20059;-87
2022/03/22 04:17:50;;;;;;;8.27;4.95;;;;;;;;;;20197806;29;20136;-86
2022/03/22 04:38:19;;;;;;;6.15;5.38;;;;;;;;;;20173882;29;20060;-87
2022/03/22 04:48:26;;;;;;;5.78;4.88;;;;;;;;;;20148601;29;20099;-86
2022/03/22 04:58:30;;;;;;;5.75;4.78;;;;;;;;;;20147023;29;20045;-87
2022/03/22 05:08:41;;;;;;;5.15;4.40;;;;;;;;;;20167294;29;20049;-86
2022/03/22 05:18:55;;;;;;;6.95;4.70;;;;;;;;;;20146708;29;20116;-85
2022/03/22 05:29:02;;;;;;;5.32;4.82;;;;;;;;;;20161615;29;20057;-85
2022/03/22 05:39:06;;;;;;;5.57;4.47;;;;;;;;;;20161502;29;20063;-85
2022/03/22 05:49:15;;;;;;;5.07;4.07;;;;;;;;;;20145891;29;20515;-86
2022/03/22 05:59:18;;;;;;;5.28;4.38;;;;;;;;;;20144540;29;20052;-86
2022/03/22 06:09:20;;;;;;;4.72;4.15;;;;;;;;;;20158675;29;20067;-85
2022/03/22 06:19:23;;;;;;;4.47;3.80;;;;;;;;;;20173749;29;20045;-85
2022/03/22 06:29:26;;;;;;;5.32;4.53;;;;;;;;;;20157059;29;20049;-85
2022/03/22 06:39:29;;;;;;;4.82;4.28;;;;;;;;;;20140978;29;20469;-86
2022/03/22 06:49:32;;;;;;;4.43;3.85;;;;;;;;;;20156148;29;20132;-84
2022/03/22 06:59:34;;;;;;;5.30;4.32;;;;;;;;;;20140629;29;20084;-84
2022/03/22 07:09:37;;;;;;;5.63;4.75;;;;;;;;;;20155029;29;20076;-84
2022/03/22 07:19:39;;;;;;;6.13;4.82;;;;;;;;;;20140146;29;20473;-84
2022/03/22 07:29:43;;;;;;;5.43;4.15;;;;;;;;;;20139871;29;20468;-84
2022/03/22 07:39:47;;;;;;;4.47;3.78;;;;;;;;;;20153952;29;20060;-84
2022/03/22 08:00:21;;;;;;;4.07;3.50;;;;;;;;;;20184008;29;20388;-84
2022/03/22 08:10:31;;;;;;;4.55;3.65;;;;;;;;;;20167492;29;20060;-85
2022/03/22 08:20:41;;;;;;;4.95;3.90;;;;;;;;;;20168318;29;20260;-84
2022/03/22 08:30:50;;;;;;;4.78;3.97;;;;;;;;;;20165850;29;20140;-84
2022/03/22 08:40:56;;;;;;;5.45;3.83;;;;;;;;;;20150700;29;20109;-84
2022/03/22 08:50:59;;;;;;;4.13;3.73;;;;;;;;;;20149298;29;20552;-84
2022/03/22 09:01:02;;;;;;;4.40;3.97;;;;;;;;;;20162886;29;20053;-85
2022/03/22 09:11:11;;;;;;;3.90;3.50;;;;;;;;;;20149513;29;20053;-82
2022/03/22 09:21:22;;;;;;;3.90;3.50;;;;;;;;;;20178384;29;20132;-85
2022/03/22 09:31:32;;;;;;;4.38;3.60;;;;;;;;;;20145792;29;20049;-85
2022/03/22 09:41:43;;;;;;;6.03;4.93;;;;;;;;;;20169219;29;20085;-85
2022/03/22 09:51:48;;;;;;;5.57;4.93;;;;;;;;;;20144557;29;20412;-84
2022/03/22 10:01:53;;;;;;;5.93;4.47;;;;;;;;;;20174309;29;20456;-84
2022/03/22 10:12:00;;;;;;;5.25;4.60;;;;;;;;;;20143647;29;20460;-85
2022/03/22 10:22:12;;;;;;;6.60;5.18;;;;;;;;;;20145990;29;20399;-85
2022/03/22 10:32:51;;;;;;;5.70;4.60;;;;;;;;;;20158062;29;20453;-85
2022/03/22 10:42:59;;;;;;;5.38;4.78;;;;;;;;;;20171610;29;20057;-85
2022/03/22 10:53:12;;;;;;;5.97;4.75;;;;;;;;;;20156673;29;20518;-84
2022/03/22 11:03:26;;;;;;;4.72;4.20;;;;;;;;;;20171133;29;20080;-85
2022/03/22 11:13:36;;;;;;;5.28;4.78;;;;;;;;;;20155572;29;20079;-84
2022/03/22 11:23:44;;;;;;;5.10;4.22;;;;;;;;;;20156372;29;20144;-85
2022/03/22 11:44:21;;;;;;;6.07;5.20;;;;;;;;;;20169493;29;20057;-83
2022/03/22 11:54:32;;;;;;;5.68;5.00;;;;;;;;;;20184753;29;20108;-85
2022/03/22 12:04:38;;;;;;;5.57;4.70;;;;;;;;;;20168113;29;20053;-85
2022/03/22 12:14:48;;;;;;;6.72;5.18;;;;;;;;;;20167375;29;20523;-85
2022/03/22 12:25:02;;;;;;;6.63;5.18;;;;;;;;;;20182874;29;20124;-85
2022/03/22 12:35:11;;;;;;;6.60;5.03;;;;;;;;;;20148961;29;20109;-85
2022/03/22 12:45:18;;;;;;;5.93;5.13;;;;;;;;;;20165035;29;20060;-85
2022/03/22 12:55:30;;;;;;;;;;;;;;;;;;20152583;29;20053;-85
2022/03/22 13:05:32;;;;;;;6.65;5.45;;;;;;;;;;20163707;29;19924;-85
2022/03/22 13:16:03;;;;;;;5.50;4.80;;;;;;;;;;20162908;29;20083;-85
2022/03/22 13:26:32;;;;;;;7.00;5.20;;;;;;;;;;20162268;29;20056;-84
2022/03/22 13:36:38;;;;;;;7.28;5.47;;;;;;;;;;20161248;29;20048;-83
2022/03/22 13:46:59;;;;;;;6.00;5.00;;;;;;;;;;20161482;29;20049;-85
2022/03/22 13:57:08;;;;;;;7.13;5.32;;;;;;;;;;20176678;29;20060;-85
2022/03/22 14:07:10;;;;;;;6.65;4.95;;;;;;;;;;20174722;29;20144;-85
2022/03/22 14:17:32;;;;;;;5.93;4.80;;;;;;;;;;20165114;29;20068;-84
2022/03/22 14:27:39;;;;;;;6.72;5.10;;;;;;;;;;20173416;29;20148;-85
2022/03/22 14:37:43;;;;;;;;;;;;;;;;;;20142253;29;20057;-89
2022/03/22 14:47:56;;;;;;;6.07;4.80;;;;;;;;;;20172012;29;20406;-82
2022/03/22 15:08:22;;;;;;;6.25;4.97;;;;;;;;;;20158424;29;20053;-80
2022/03/22 15:18:26;;;;;;;6.53;4.63;;;;;;;;;;20141272;29;20522;-80
2022/03/22 15:28:30;;;;;;;6.55;4.95;;;;;;;;;;20140143;29;20053;-80
2022/03/22 15:38:36;;;;;;;7.00;4.50;;;;;;;;;;20154076;29;20045;-80
2022/03/22 15:48:43;;;;;;;6.65;4.97;;;;;;;;;;20139696;29;20515;-80
2022/03/22 15:58:45;;;;;;;6.55;4.68;;;;;;;;;;20138852;29;20049;-80
2022/03/22 16:08:49;;;;;;;5.10;4.60;;;;;;;;;;20138538;29;20045;-80
2022/03/22 16:18:52;;;;;;;4.95;4.45;;;;;;;;;;20181904;29;20056;-80
2022/03/22 16:28:56;;;;;;;4.95;4.32;;;;;;;;;;20149635;29;20053;-84
2022/03/22 16:49:21;;;;;;;5.15;4.20;;;;;;;;;;20167424;29;20416;-83
2022/03/22 16:59:24;;;;;;;4.50;4.10;;;;;;;;;;20148923;29;20052;-83
2022/03/22 17:09:27;;;;;;;5.20;4.00;;;;;;;;;;20162993;29;20049;-83
2022/03/22 17:19:29;;;;;;;4.40;3.63;;;;;;;;;;20146971;29;20064;-82
2022/03/22 17:29:31;;;;;;;4.85;3.88;;;;;;;;;;20146134;29;20053;-82
2022/03/22 17:39:44;;;;;;;4.40;3.80;;;;;;;;;;20160732;29;20053;-83
2022/03/22 17:49:48;;;;;;;5.32;3.95;;;;;;;;;;20160815;29;20148;-82
2022/03/22 17:59:53;;;;;;;5.07;4.57;;;;;;;;;;20160369;29;20164;-83
2022/03/22 18:09:56;;;;;;;4.60;3.88;;;;;;;;;;20144087;29;20085;-82
2022/03/22 18:19:58;;;;;;;4.45;3.70;;;;;;;;;;20143575;29;20422;-81
2022/03/22 18:30:00;;;;;;;4.28;3.88;;;;;;;;;;20157494;29;20056;-82
2022/03/22 18:40:03;;;;;;;5.43;4.57;;;;;;;;;;20156212;29;20065;-82
2022/03/22 18:50:08;;;;;;;4.50;3.88;;;;;;;;;;20141499;29;20144;-82
2022/03/22 19:00:13;;;;;;;4.88;4.35;;;;;;;;;;20155751;29;20441;-79
2022/03/22 19:10:21;;;;;;;5.90;4.90;;;;;;;;;;20155384;29;20534;-82
2022/03/22 19:20:25;;;;;;;6.68;4.50;;;;;;;;;;20155179;29;20061;-81
2022/03/22 19:30:27;;;;;;;5.95;4.85;;;;;;;;;;20154337;29;20405;-82
2022/03/22 19:40:30;;;;;;;6.22;4.57;;;;;;;;;;20139322;29;20495;-81
2022/03/22 19:50:33;;;;;;;4.85;4.35;;;;;;;;;;20163851;29;20053;-81
2022/03/22 20:00:36;;;;;;;5.90;4.85;;;;;;;;;;20153037;29;20451;-81
2022/03/22 20:10:40;;;;;;;5.88;4.90;;;;;;;;;;20168246;29;20056;-86
2022/03/22 20:20:42;;;;;;;6.53;4.90;;;;;;;;;;20181984;29;20045;-86
2022/03/22 20:30:44;;;;;;;5.28;4.47;;;;;;;;;;20150772;29;20045;-85
2022/03/22 20:40:48;;;;;;;5.07;4.22;;;;;;;;;;20150728;29;20060;-85
2022/03/22 20:50:52;;;;;;;5.55;4.60;;;;;;;;;;20163705;29;20045;-85
2022/03/22 21:00:57;;;;;;;5.47;4.85;;;;;;;;;;20163420;29;20067;-84
2022/03/22 21:11:02;;;;;;;6.65;4.75;;;;;;;;;;20169827;29;20052;-84
2022/03/22 21:21:07;;;;;;;6.57;5.57;;;;;;;;;;20152638;29;20064;-85
2022/03/22 21:31:10;;;;;;;6.00;5.32;;;;;;;;;;20167712;29;20176;-85
2022/03/22 21:41:14;;;;;;;6.13;5.25;;;;;;;;;;20149386;29;20467;-85
2022/03/22 21:51:19;;;;;;;6.78;5.75;;;;;;;;;;20141177;29;20060;-84
2022/03/22 22:01:22;;;;;;;5.97;5.30;;;;;;;;;;20158809;29;20055;-86
2022/03/22 22:11:31;;;;;;;6.90;6.18;;;;;;;;;;20155495;29;20049;-86
2022/03/22 22:21:37;;;;;;;7.83;5.87;;;;;;;;;;20138292;29;20053;-83
2022/03/22 22:42:06;;;;;;;6.43;5.38;;;;;;;;;;20151636;29;20139;-85
2022/03/22 22:52:09;;;;;;;7.35;5.80;;;;;;;;;;20137058;29;20136;-84
2022/03/22 23:02:15;;;;;;;6.63;5.60;;;;;;;;;;20144589;29;20048;-84
2022/03/22 23:12:18;;;;;;;6.95;5.95;;;;;;;;;;20147860;29;20045;-85
2022/03/22 23:22:21;;;;;;;6.22;5.47;;;;;;;;;;20142034;29;20071;-85
2022/03/22 23:32:26;;;;;;;6.63;5.40;;;;;;;;;;20179720;29;20041;-84
2022/03/22 23:42:30;;;;;;;8.13;6.17;;;;;;;;;;20149304;29;20407;-84
2022/03/22 23:52:33;;;;;;;6.70;5.68;;;;;;;;;;20150206;29;20051;-84
